Time,TemperatureF,DewpointF,PressureIn,WindDirection,WindDirectionDegrees,WindSpeedMPH,WindSpeedGustMPH,Humidity,HourlyPrecipIn,Conditions,Clouds,dailyrainin,SolarRadiationWatts/m^2,SoftwareType,DateUTC
2013-02-18 00:02:00,54.7,49.6,30.06,ESE,113,2.0,5.0,83,0.00,,,0.00,0,HR-IXP-WINDi_r2_v1.2,2013-02-18 08:02:00,
2013-02-18 00:07:00,54.7,49.6,30.06,ESE,113,0.0,4.0,83,0.00,,,0.00,0,HR-IXP-WINDi_r2_v1.2,2013-02-18 08:07:00,
2013-02-18 00:12:00,54.7,49.6,30.06,ESE,113,1.0,3.0,83,0.00,,,0.00,0,HR-IXP-WINDi_r2_v1.2,2013-02-18 08:12:00,
2013-02-18 00:17:00,54.7,49.6,30.05,ESE,113,3.0,4.0,83,0.00,,,0.00,0,HR-IXP-WINDi_r2_v1.2,2013-02-18 08:17:00,
2013-02-18 00:22:00,54.7,49.6,30.05,SE,137,2.0,4.0,83,0.00,,,0.00,0,HR-IXP-WINDi_r2_v1.2,2013-02-18 08:22:00,
2013-02-18 00:28:00,54.7,49.6,30.05,SE,146,1.0,3.0,83,0.00,,,0.00,0,HR-IXP-WINDi_r2_v1.2,2013-02-18 08:28:00,
2013-02-18 00:33:00,54.7,49.3,30.05,SE,130,2.0,5.0,82,0.00,,,0.00,0,HR-IXP-WINDi_r2_v1.2,2013-02-18 08:33:00,
2013-02-18 00:38:00,54.7,49.3,30.05,ESE,113,3.0,6.0,82,0.00,,,0.00,0,HR-IXP-WINDi_r2_v1.2,2013-02-18 08:38:00,
2013-02-18 00:43:00,54.8,49.3,30.06,ESE,121,1.0,6.0,82,0.00,,,0.00,0,HR-IXP-WINDi_r2_v1.2,2013-02-18 08:43:00,
2013-02-18 00:48:00,54.7,49.3,30.05,SE,137,0.0,5.0,82,0.00,,,0.00,0,HR-IXP-WINDi_r2_v1.2,2013-02-18 08:48:00,
2013-02-18 00:53:00,54.7,49.3,30.05,ESE,120,3.0,4.0,82,0.00,,,0.00,0,HR-IXP-WINDi_r2_v1.2,2013-02-18 08:53:00,
2013-02-18 00:58:00,54.6,48.8,30.05,ESE,109,1.0,7.0,81,0.00,,,0.00,0,HR-IXP-WINDi_r2_v1.2,2013-02-18 08:58:00,
2013-02-18 01:04:00,54.6,48.8,30.05,ESE,112,2.0,7.0,81,0.00,,,0.00,0,HR-IXP-WINDi_r2_v1.2,2013-02-18 09:04:00,
2013-02-18 01:09:00,54.6,48.8,30.05,SE,131,2.0,5.0,81,0.00,,,0.00,0,HR-IXP-WINDi_r2_v1.2,2013-02-18 09:09:00,
2013-02-18 01:14:00,54.6,48.8,30.05,SE,128,3.0,5.0,81,0.00,,,0.00,0,HR-IXP-WINDi_r2_v1.2,2013-02-18 09:14:00,
2013-02-18 01:19:00,54.5,48.7,30.05,SE,129,3.0,4.0,81,0.00,,,0.00,0,HR-IXP-WINDi_r2_v1.2,2013-02-18 09:19:00,
2013-02-18 01:24:00,54.5,48.7,30.05,SE,139,2.0,4.0,81,0.00,,,0.00,0,HR-IXP-WINDi_r2_v1.2,2013-02-18 09:24:00,
2013-02-18 01:30:00,54.4,48.6,30.05,East,83,2.0,5.0,81,0.00,,,0.00,0,HR-IXP-WINDi_r2_v1.2,2013-02-18 09:30:00,
2013-02-18 01:35:00,54.4,48.6,30.05,ESE,123,1.0,5.0,81,0.00,,,0.00,0,HR-IXP-WINDi_r2_v1.2,2013-02-18 09:35:00,
2013-02-18 01:40:00,54.2,48.4,30.06,SE,126,2.0,4.0,81,0.00,,,0.00,0,HR-IXP-WINDi_r2_v1.2,2013-02-18 09:40:00,
2013-02-18 01:45:00,54.2,48.1,30.05,East,101,2.0,6.0,80,0.00,,,0.00,0,HR-IXP-WINDi_r2_v1.2,2013-02-18 09:45:00,
2013-02-18 01:50:00,54.1,48.3,30.05,SE,142,1.0,6.0,81,0.00,,,0.00,0,HR-IXP-WINDi_r2_v1.2,2013-02-18 09:50:00,
2013-02-18 01:55:00,54.1,48.3,30.05,SE,142,2.0,3.0,81,0.00,,,0.00,0,HR-IXP-WINDi_r2_v1.2,2013-02-18 09:55:00,
2013-02-18 02:01:00,54.1,48.3,30.05,SE,134,1.0,3.0,81,0.00,,,0.00,0,HR-IXP-WINDi_r2_v1.2,2013-02-18 10:01:00,
2013-02-18 02:06:00,54.0,48.2,30.05,ESE,106,2.0,5.0,81,0.00,,,0.00,0,HR-IXP-WINDi_r2_v1.2,2013-02-18 10:06:00,
2013-02-18 02:11:00,53.9,48.1,30.05,ESE,111,2.0,5.0,81,0.00,,,0.00,0,HR-IXP-WINDi_r2_v1.2,2013-02-18 10:11:00,
2013-02-18 02:17:00,53.8,48.0,30.05,ESE,112,1.0,5.0,81,0.00,,,0.00,0,HR-IXP-WINDi_r2_v1.2,2013-02-18 10:17:00,
2013-02-18 02:22:00,53.8,48.0,30.05,East,97,2.0,6.0,81,0.00,,,0.00,0,HR-IXP-WINDi_r2_v1.2,2013-02-18 10:22:00,
2013-02-18 02:27:00,53.6,47.9,30.05,East,97,1.0,6.0,81,0.00,,,0.00,0,HR-IXP-WINDi_r2_v1.2,2013-02-18 10:27:00,
2013-02-18 02:32:00,53.5,47.8,30.04,East,98,1.0,6.0,81,0.00,,,0.00,0,HR-IXP-WINDi_r2_v1.2,2013-02-18 10:32:00,
2013-02-18 02:37:00,53.5,47.8,30.04,ESE,108,2.0,3.0,81,0.00,,,0.00,0,HR-IXP-WINDi_r2_v1.2,2013-02-18 10:37:00,
2013-02-18 02:42:00,53.5,47.8,30.04,ESE,122,1.0,4.0,81,0.00,,,0.00,0,HR-IXP-WINDi_r2_v1.2,2013-02-18 10:42:00,
2013-02-18 02:47:00,53.5,47.8,30.04,ESE,112,2.0,4.0,81,0.00,,,0.00,0,HR-IXP-WINDi_r2_v1.2,2013-02-18 10:47:00,
2013-02-18 02:53:00,53.5,47.8,30.04,East,96,2.0,6.0,81,0.00,,,0.00,0,HR-IXP-WINDi_r2_v1.2,2013-02-18 10:53:00,
2013-02-18 02:58:00,53.5,47.8,30.04,ESE,103,1.0,6.0,81,0.00,,,0.00,0,HR-IXP-WINDi_r2_v1.2,2013-02-18 10:58:00,
2013-02-18 03:04:00,53.5,47.8,30.04,ESE,110,2.0,4.0,81,0.00,,,0.00,0,HR-IXP-WINDi_r2_v1.2,2013-02-18 11:04:00,
2013-02-18 03:09:00,53.6,47.9,30.04,SE,124,1.0,5.0,81,0.00,,,0.00,0,HR-IXP-WINDi_r2_v1.2,2013-02-18 11:09:00,
2013-02-18 03:14:00,53.6,47.9,30.04,ESE,117,2.0,6.0,81,0.00,,,0.00,0,HR-IXP-WINDi_r2_v1.2,2013-02-18 11:14:00,
2013-02-18 03:19:00,53.6,47.9,30.04,East,98,1.0,6.0,81,0.00,,,0.00,0,HR-IXP-WINDi_r2_v1.2,2013-02-18 11:19:00,
2013-02-18 03:24:00,53.7,47.9,30.05,East,99,2.0,6.0,81,0.00,,,0.00,0,HR-IXP-WINDi_r2_v1.2,2013-02-18 11:24:00,
2013-02-18 03:30:00,53.7,47.9,30.04,East,101,2.0,5.0,81,0.00,,,0.00,0,HR-IXP-WINDi_r2_v1.2,2013-02-18 11:30:00,
2013-02-18 03:35:00,53.7,47.9,30.04,SE,126,0.0,5.0,81,0.00,,,0.00,0,HR-IXP-WINDi_r2_v1.2,2013-02-18 11:35:00,
2013-02-18 03:40:00,53.7,47.9,30.05,SE,145,0.0,4.0,81,0.00,,,0.00,0,HR-IXP-WINDi_r2_v1.2,2013-02-18 11:40:00,
2013-02-18 03:45:00,53.7,47.9,30.05,SE,145,0.0,3.0,81,0.00,,,0.00,0,HR-IXP-WINDi_r2_v1.2,2013-02-18 11:45:00,
2013-02-18 03:51:00,53.7,47.9,30.05,SE,145,0.0,2.0,81,0.00,,,0.00,0,HR-IXP-WINDi_r2_v1.2,2013-02-18 11:51:00,
2013-02-18 03:56:00,53.8,48.0,30.05,ESE,117,1.0,3.0,81,0.00,,,0.00,0,HR-IXP-WINDi_r2_v1.2,2013-02-18 11:56:00,
2013-02-18 04:01:00,53.8,48.0,30.05,ESE,123,0.0,3.0,81,0.00,,,0.00,0,HR-IXP-WINDi_r2_v1.2,2013-02-18 12:01:00,
2013-02-18 04:06:00,53.8,48.0,30.05,ESE,121,0.0,3.0,81,0.00,,,0.00,0,HR-IXP-WINDi_r2_v1.2,2013-02-18 12:06:00,
2013-02-18 04:12:00,53.9,48.1,30.06,ESE,120,3.0,4.0,81,0.00,,,0.00,0,HR-IXP-WINDi_r2_v1.2,2013-02-18 12:12:00,
2013-02-18 04:17:00,53.8,48.0,30.06,East,94,1.0,5.0,81,0.00,,,0.00,0,HR-IXP-WINDi_r2_v1.2,2013-02-18 12:17:00,
2013-02-18 04:22:00,53.9,48.1,30.06,East,93,3.0,5.0,81,0.00,,,0.00,0,HR-IXP-WINDi_r2_v1.2,2013-02-18 12:22:00,
2013-02-18 04:27:00,53.9,47.8,30.06,East,99,1.0,5.0,80,0.00,,,0.00,0,HR-IXP-WINDi_r2_v1.2,2013-02-18 12:27:00,
2013-02-18 04:32:00,53.8,47.7,30.06,ESE,110,1.0,5.0,80,0.00,,,0.00,0,HR-IXP-WINDi_r2_v1.2,2013-02-18 12:32:00,
2013-02-18 04:37:00,53.8,47.7,30.06,SE,128,1.0,5.0,80,0.00,,,0.00,0,HR-IXP-WINDi_r2_v1.2,2013-02-18 12:37:00,
2013-02-18 04:43:00,53.9,47.8,30.06,SE,127,2.0,4.0,80,0.00,,,0.00,0,HR-IXP-WINDi_r2_v1.2,2013-02-18 12:43:00,
2013-02-18 04:48:00,53.8,47.7,30.07,ESE,113,0.0,4.0,80,0.00,,,0.00,0,HR-IXP-WINDi_r2_v1.2,2013-02-18 12:48:00,
2013-02-18 04:53:00,53.9,47.8,30.07,SE,132,2.0,4.0,80,0.00,,,0.00,0,HR-IXP-WINDi_r2_v1.2,2013-02-18 12:53:00,
2013-02-18 04:58:00,53.9,47.8,30.07,SE,133,0.0,4.0,80,0.00,,,0.00,0,HR-IXP-WINDi_r2_v1.2,2013-02-18 12:58:00,
2013-02-18 05:04:00,53.9,47.8,30.07,East,101,2.0,5.0,80,0.00,,,0.00,0,HR-IXP-WINDi_r2_v1.2,2013-02-18 13:04:00,
2013-02-18 05:09:00,53.9,47.8,30.07,East,101,2.0,5.0,80,0.00,,,0.00,0,HR-IXP-WINDi_r2_v1.2,2013-02-18 13:09:00,
2013-02-18 05:14:00,53.8,47.7,30.07,ESE,108,3.0,5.0,80,0.00,,,0.00,0,HR-IXP-WINDi_r2_v1.2,2013-02-18 13:14:00,
2013-02-18 05:19:00,53.8,47.7,30.07,East,94,5.0,5.0,80,0.00,,,0.00,0,HR-IXP-WINDi_r2_v1.2,2013-02-18 13:19:00,
2013-02-18 05:25:00,53.8,47.7,30.07,East,90,3.0,7.0,80,0.00,,,0.00,0,HR-IXP-WINDi_r2_v1.2,2013-02-18 13:25:00,
2013-02-18 05:30:00,53.8,47.7,30.07,ENE,73,3.0,7.0,80,0.00,,,0.00,0,HR-IXP-WINDi_r2_v1.2,2013-02-18 13:30:00,
2013-02-18 05:35:00,53.8,47.7,30.07,East,84,2.0,7.0,80,0.00,,,0.00,0,HR-IXP-WINDi_r2_v1.2,2013-02-18 13:35:00,
2013-02-18 05:40:00,53.7,47.6,30.08,ENE,77,4.0,7.0,80,0.00,,,0.00,0,HR-IXP-WINDi_r2_v1.2,2013-02-18 13:40:00,
2013-02-18 05:45:00,53.7,47.6,30.08,ENE,77,2.0,5.0,80,0.00,,,0.00,0,HR-IXP-WINDi_r2_v1.2,2013-02-18 13:45:00,
2013-02-18 05:51:00,53.7,47.6,30.08,ESE,107,1.0,4.0,80,0.00,,,0.00,0,HR-IXP-WINDi_r2_v1.2,2013-02-18 13:51:00,
2013-02-18 05:56:00,53.8,47.7,30.08,ESE,119,3.0,4.0,80,0.00,,,0.00,0,HR-IXP-WINDi_r2_v1.2,2013-02-18 13:56:00,
2013-02-18 06:01:00,53.7,47.6,30.08,ESE,107,3.0,6.0,80,0.00,,,0.00,0,HR-IXP-WINDi_r2_v1.2,2013-02-18 14:01:00,
2013-02-18 06:06:00,53.6,47.5,30.08,ESE,115,4.0,6.0,80,0.00,,,0.00,0,HR-IXP-WINDi_r2_v1.2,2013-02-18 14:06:00,
2013-02-18 06:11:00,53.6,47.2,30.09,East,88,3.0,6.0,79,0.00,,,0.00,0,HR-IXP-WINDi_r2_v1.2,2013-02-18 14:11:00,
2013-02-18 06:16:00,53.6,47.5,30.09,East,97,2.0,6.0,80,0.00,,,0.00,0,HR-IXP-WINDi_r2_v1.2,2013-02-18 14:16:00,
2013-02-18 06:22:00,53.6,47.2,30.09,East,93,2.0,5.0,79,0.00,,,0.00,0,HR-IXP-WINDi_r2_v1.2,2013-02-18 14:22:00,
2013-02-18 06:27:00,53.6,47.2,30.09,East,97,5.0,5.0,79,0.00,,,0.00,0,HR-IXP-WINDi_r2_v1.2,2013-02-18 14:27:00,
2013-02-18 06:32:00,53.6,47.2,30.09,East,90,1.0,5.0,79,0.00,,,0.00,0,HR-IXP-WINDi_r2_v1.2,2013-02-18 14:32:00,
2013-02-18 06:37:00,53.6,47.2,30.09,ENE,70,3.0,5.0,79,0.00,,,0.00,0,HR-IXP-WINDi_r2_v1.2,2013-02-18 14:37:00,
2013-02-18 06:42:00,53.6,47.2,30.08,East,92,3.0,5.0,79,0.00,,,0.00,0,HR-IXP-WINDi_r2_v1.2,2013-02-18 14:42:00,
2013-02-18 06:48:00,53.6,47.2,30.08,ENE,77,2.0,5.0,79,0.00,,,0.00,5,HR-IXP-WINDi_r2_v1.2,2013-02-18 14:48:00,
2013-02-18 06:53:00,53.6,47.2,30.09,East,94,3.0,5.0,79,0.00,,,0.00,7,HR-IXP-WINDi_r2_v1.2,2013-02-18 14:53:00,
2013-02-18 06:58:00,53.6,47.2,30.09,ESE,104,2.0,6.0,79,0.00,,,0.00,12,HR-IXP-WINDi_r2_v1.2,2013-02-18 14:58:00,
2013-02-18 07:03:00,53.7,47.3,30.09,East,90,5.0,6.0,79,0.00,,,0.00,14,HR-IXP-WINDi_r2_v1.2,2013-02-18 15:03:00,
2013-02-18 07:08:00,53.6,47.2,30.09,ENE,63,2.0,7.0,79,0.00,,,0.00,19,HR-IXP-WINDi_r2_v1.2,2013-02-18 15:08:00,
2013-02-18 07:14:00,53.5,47.1,30.09,East,90,3.0,7.0,79,0.00,,,0.00,23,HR-IXP-WINDi_r2_v1.2,2013-02-18 15:14:00,
2013-02-18 07:19:00,53.4,47.0,30.09,East,80,5.0,7.0,79,0.00,,,0.00,25,HR-IXP-WINDi_r2_v1.2,2013-02-18 15:19:00,
2013-02-18 07:24:00,53.4,47.0,30.09,East,80,3.0,7.0,79,0.00,,,0.00,28,HR-IXP-WINDi_r2_v1.2,2013-02-18 15:24:00,
2013-02-18 07:29:00,53.4,46.7,30.09,ENE,69,3.0,7.0,78,0.00,,,0.00,39,HR-IXP-WINDi_r2_v1.2,2013-02-18 15:29:00,
2013-02-18 07:34:00,53.4,46.7,30.09,ENE,69,4.0,8.0,78,0.00,,,0.00,40,HR-IXP-WINDi_r2_v1.2,2013-02-18 15:34:00,
2013-02-18 07:39:00,53.5,46.8,30.09,ENE,69,3.0,8.0,78,0.00,,,0.00,46,HR-IXP-WINDi_r2_v1.2,2013-02-18 15:39:00,
2013-02-18 07:45:00,53.5,46.8,30.10,East,100,3.0,9.0,78,0.00,,,0.00,51,HR-IXP-WINDi_r2_v1.2,2013-02-18 15:45:00,
2013-02-18 07:50:00,53.6,46.9,30.10,East,95,6.0,9.0,78,0.00,,,0.00,56,HR-IXP-WINDi_r2_v1.2,2013-02-18 15:50:00,
2013-02-18 07:55:00,53.7,46.9,30.10,ENE,74,5.0,8.0,78,0.00,,,0.00,62,HR-IXP-WINDi_r2_v1.2,2013-02-18 15:55:00,
2013-02-18 08:00:00,53.8,46.7,30.10,ENE,61,3.0,8.0,77,0.00,,,0.00,70,HR-IXP-WINDi_r2_v1.2,2013-02-18 16:00:00,
2013-02-18 08:05:00,53.9,46.8,30.10,East,80,3.0,8.0,77,0.00,,,0.00,76,HR-IXP-WINDi_r2_v1.2,2013-02-18 16:05:00,
2013-02-18 08:10:00,54.1,46.6,30.10,ENE,74,3.0,8.0,76,0.00,,,0.00,88,HR-IXP-WINDi_r2_v1.2,2013-02-18 16:10:00,
2013-02-18 08:16:00,54.3,46.8,30.10,ENE,63,3.0,8.0,76,0.00,,,0.00,98,HR-IXP-WINDi_r2_v1.2,2013-02-18 16:16:00,
2013-02-18 08:21:00,54.6,46.8,30.10,ENE,76,3.0,7.0,75,0.00,,,0.00,105,HR-IXP-WINDi_r2_v1.2,2013-02-18 16:21:00,
2013-02-18 08:26:00,55.1,47.3,30.10,East,79,6.0,7.0,75,0.00,,,0.00,118,HR-IXP-WINDi_r2_v1.2,2013-02-18 16:26:00,
2013-02-18 08:31:00,55.4,47.2,30.10,East,82,2.0,7.0,74,0.00,,,0.00,118,HR-IXP-WINDi_r2_v1.2,2013-02-18 16:31:00,
2013-02-18 08:36:00,55.4,46.8,30.10,East,93,2.0,7.0,73,0.00,,,0.00,134,HR-IXP-WINDi_r2_v1.2,2013-02-18 16:36:00,
2013-02-18 08:41:00,55.7,47.5,30.10,East,80,5.0,7.0,74,0.00,,,0.00,144,HR-IXP-WINDi_r2_v1.2,2013-02-18 16:41:00,
2013-02-18 08:46:00,56.1,47.5,30.10,ENE,66,5.0,8.0,73,0.00,,,0.00,167,HR-IXP-WINDi_r2_v1.2,2013-02-18 16:46:00,
2013-02-18 08:51:00,56.4,47.8,30.10,ENE,65,1.0,8.0,73,0.00,,,0.00,178,HR-IXP-WINDi_r2_v1.2,2013-02-18 16:51:00,
2013-02-18 08:57:00,56.9,47.5,30.09,ENE,61,3.0,8.0,71,0.00,,,0.00,204,HR-IXP-WINDi_r2_v1.2,2013-02-18 16:57:00,
2013-02-18 09:02:00,57.4,47.6,30.10,ENE,61,2.0,8.0,70,0.00,,,0.00,209,HR-IXP-WINDi_r2_v1.2,2013-02-18 17:02:00,
2013-02-18 09:07:00,57.3,47.9,30.10,NE,38,2.0,5.0,71,0.00,,,0.00,202,HR-IXP-WINDi_r2_v1.2,2013-02-18 17:07:00,
2013-02-18 09:12:00,57.6,47.4,30.09,East,83,1.0,7.0,69,0.00,,,0.00,206,HR-IXP-WINDi_r2_v1.2,2013-02-18 17:12:00,
2013-02-18 09:17:00,57.2,47.4,30.10,East,91,3.0,7.0,70,0.00,,,0.00,218,HR-IXP-WINDi_r2_v1.2,2013-02-18 17:17:00,
2013-02-18 09:23:00,57.6,47.8,30.10,SE,128,3.0,5.0,70,0.00,,,0.00,236,HR-IXP-WINDi_r2_v1.2,2013-02-18 17:23:00,
2013-02-18 09:28:00,56.9,47.2,30.10,East,85,5.0,5.0,70,0.00,,,0.00,244,HR-IXP-WINDi_r2_v1.2,2013-02-18 17:28:00,
2013-02-18 09:33:00,57.8,47.3,30.10,ESE,105,1.0,8.0,68,0.00,,,0.00,246,HR-IXP-WINDi_r2_v1.2,2013-02-18 17:33:00,
2013-02-18 09:38:00,57.8,47.3,30.10,NE,45,3.0,8.0,68,0.00,,,0.00,339,HR-IXP-WINDi_r2_v1.2,2013-02-18 17:38:00,
2013-02-18 09:43:00,58.7,48.5,30.09,ESE,118,4.0,5.0,69,0.00,,,0.00,345,HR-IXP-WINDi_r2_v1.2,2013-02-18 17:43:00,
2013-02-18 09:49:00,59.0,47.2,30.10,SSE,147,1.0,5.0,65,0.00,,,0.00,452,HR-IXP-WINDi_r2_v1.2,2013-02-18 17:49:00,
2013-02-18 09:54:00,59.2,48.2,30.10,SSE,148,3.0,7.0,67,0.00,,,0.00,237,HR-IXP-WINDi_r2_v1.2,2013-02-18 17:54:00,
2013-02-18 09:59:00,57.9,46.6,30.10,SSE,159,3.0,7.0,66,0.00,,,0.00,220,HR-IXP-WINDi_r2_v1.2,2013-02-18 17:59:00,
2013-02-18 10:04:00,57.0,46.9,30.10,SSE,159,1.0,5.0,69,0.00,,,0.00,262,HR-IXP-WINDi_r2_v1.2,2013-02-18 18:04:00,
2013-02-18 10:09:00,59.1,48.5,30.10,East,99,2.0,4.0,68,0.00,,,0.00,357,HR-IXP-WINDi_r2_v1.2,2013-02-18 18:09:00,
2013-02-18 10:14:00,58.6,46.8,30.10,SE,130,5.0,7.0,65,0.00,,,0.00,288,HR-IXP-WINDi_r2_v1.2,2013-02-18 18:14:00,
2013-02-18 10:19:00,58.9,47.5,30.10,East,92,1.0,7.0,66,0.00,,,0.00,271,HR-IXP-WINDi_r2_v1.2,2013-02-18 18:19:00,
2013-02-18 10:24:00,58.3,46.9,30.10,SSE,159,1.0,7.0,66,0.00,,,0.00,279,HR-IXP-WINDi_r2_v1.2,2013-02-18 18:24:00,
2013-02-18 10:30:00,58.0,47.1,30.10,SSE,162,2.0,4.0,67,0.00,,,0.00,315,HR-IXP-WINDi_r2_v1.2,2013-02-18 18:30:00,
2013-02-18 10:35:00,58.5,47.9,30.10,ESE,117,3.0,7.0,68,0.00,,,0.00,359,HR-IXP-WINDi_r2_v1.2,2013-02-18 18:35:00,
2013-02-18 10:40:00,60.1,48.2,30.10,ESE,122,4.0,7.0,65,0.00,,,0.00,404,HR-IXP-WINDi_r2_v1.2,2013-02-18 18:40:00,
2013-02-18 10:45:00,61.1,48.4,30.10,ENE,75,4.0,7.0,63,0.00,,,0.00,334,HR-IXP-WINDi_r2_v1.2,2013-02-18 18:45:00,
2013-02-18 10:51:00,61.5,48.3,30.09,East,84,2.0,7.0,62,0.00,,,0.00,497,HR-IXP-WINDi_r2_v1.2,2013-02-18 18:51:00,
2013-02-18 10:56:00,60.8,46.8,30.09,East,92,0.0,6.0,60,0.00,,,0.00,374,HR-IXP-WINDi_r2_v1.2,2013-02-18 18:56:00,
2013-02-18 11:01:00,58.4,46.6,30.09,SSW,199,1.0,5.0,65,0.00,,,0.00,429,HR-IXP-WINDi_r2_v1.2,2013-02-18 19:01:00,
2013-02-18 11:06:00,60.3,49.2,30.09,South,173,0.0,6.0,67,0.00,,,0.00,710,HR-IXP-WINDi_r2_v1.2,2013-02-18 19:06:00,
2013-02-18 11:11:00,60.7,47.1,30.09,SSW,193,4.0,8.0,61,0.00,,,0.00,645,HR-IXP-WINDi_r2_v1.2,2013-02-18 19:11:00,
2013-02-18 11:17:00,60.0,47.3,30.09,NE,49,1.0,8.0,63,0.00,,,0.00,671,HR-IXP-WINDi_r2_v1.2,2013-02-18 19:17:00,
2013-02-18 11:22:00,61.6,48.4,30.08,SSE,163,2.0,7.0,62,0.00,,,0.00,663,HR-IXP-WINDi_r2_v1.2,2013-02-18 19:22:00,
2013-02-18 11:27:00,61.4,47.8,30.08,SE,132,2.0,7.0,61,0.00,,,0.00,677,HR-IXP-WINDi_r2_v1.2,2013-02-18 19:27:00,
2013-02-18 11:32:00,60.1,47.4,30.08,SSE,159,2.0,9.0,63,0.00,,,0.00,663,HR-IXP-WINDi_r2_v1.2,2013-02-18 19:32:00,
2013-02-18 11:37:00,62.8,49.5,30.08,SE,144,7.0,9.0,62,0.00,,,0.00,671,HR-IXP-WINDi_r2_v1.2,2013-02-18 19:37:00,
2013-02-18 11:42:00,61.1,47.1,30.08,SW,217,4.0,7.0,60,0.00,,,0.00,677,HR-IXP-WINDi_r2_v1.2,2013-02-18 19:42:00,
2013-02-18 11:47:00,59.5,46.4,30.07,SE,130,0.0,7.0,62,0.00,,,0.00,686,HR-IXP-WINDi_r2_v1.2,2013-02-18 19:47:00,
2013-02-18 11:53:00,63.2,48.6,30.07,SE,145,2.0,7.0,59,0.00,,,0.00,671,HR-IXP-WINDi_r2_v1.2,2013-02-18 19:53:00,
2013-02-18 11:58:00,61.6,47.1,30.07,South,171,2.0,7.0,59,0.00,,,0.00,710,HR-IXP-WINDi_r2_v1.2,2013-02-18 19:58:00,
2013-02-18 12:03:00,61.1,47.9,30.06,WSW,250,1.0,6.0,62,0.00,,,0.00,680,HR-IXP-WINDi_r2_v1.2,2013-02-18 20:03:00,
2013-02-18 12:08:00,61.0,47.4,30.06,West,267,2.0,6.0,61,0.00,,,0.00,677,HR-IXP-WINDi_r2_v1.2,2013-02-18 20:08:00,
2013-02-18 12:14:00,60.8,48.1,30.06,SSW,198,3.0,6.0,63,0.00,,,0.00,675,HR-IXP-WINDi_r2_v1.2,2013-02-18 20:14:00,
2013-02-18 12:19:00,61.9,48.3,30.06,SW,215,2.0,7.0,61,0.00,,,0.00,670,HR-IXP-WINDi_r2_v1.2,2013-02-18 20:19:00,
2013-02-18 12:24:00,61.7,48.1,30.05,WSW,251,3.0,7.0,61,0.00,,,0.00,666,HR-IXP-WINDi_r2_v1.2,2013-02-18 20:24:00,
2013-02-18 12:29:00,61.2,48.0,30.05,SW,223,4.0,8.0,62,0.00,,,0.00,670,HR-IXP-WINDi_r2_v1.2,2013-02-18 20:29:00,
2013-02-18 12:34:00,61.2,48.9,30.05,SW,232,2.0,8.0,64,0.00,,,0.00,670,HR-IXP-WINDi_r2_v1.2,2013-02-18 20:34:00,
2013-02-18 12:40:00,61.6,48.4,30.05,South,184,3.0,8.0,62,0.00,,,0.00,661,HR-IXP-WINDi_r2_v1.2,2013-02-18 20:40:00,
2013-02-18 12:45:00,61.2,48.0,30.05,SSW,209,6.0,9.0,62,0.00,,,0.00,659,HR-IXP-WINDi_r2_v1.2,2013-02-18 20:45:00,
2013-02-18 12:50:00,61.1,48.8,30.05,SW,235,5.0,9.0,64,0.00,,,0.00,661,HR-IXP-WINDi_r2_v1.2,2013-02-18 20:50:00,
2013-02-18 12:55:00,60.5,48.2,30.04,West,267,8.0,9.0,64,0.00,,,0.00,654,HR-IXP-WINDi_r2_v1.2,2013-02-18 20:55:00,
2013-02-18 13:00:00,60.2,48.3,30.04,West,267,6.0,9.0,65,0.00,,,0.00,645,HR-IXP-WINDi_r2_v1.2,2013-02-18 21:00:00,
2013-02-18 13:05:00,60.4,48.5,30.04,West,275,4.0,9.0,65,0.00,,,0.00,647,HR-IXP-WINDi_r2_v1.2,2013-02-18 21:05:00,
2013-02-18 13:11:00,61.2,48.5,30.03,WSW,253,5.0,8.0,63,0.00,,,0.00,638,HR-IXP-WINDi_r2_v1.2,2013-02-18 21:11:00,
2013-02-18 13:16:00,61.2,48.9,30.03,WSW,250,5.0,7.0,64,0.00,,,0.00,633,HR-IXP-WINDi_r2_v1.2,2013-02-18 21:16:00,
2013-02-18 13:21:00,60.7,48.0,30.03,SW,234,3.0,7.0,63,0.00,,,0.00,629,HR-IXP-WINDi_r2_v1.2,2013-02-18 21:21:00,
2013-02-18 13:26:00,60.8,48.5,30.02,West,277,6.0,7.0,64,0.00,,,0.00,619,HR-IXP-WINDi_r2_v1.2,2013-02-18 21:26:00,
2013-02-18 13:31:00,62.0,49.6,30.03,SSE,164,3.0,8.0,64,0.00,,,0.00,615,HR-IXP-WINDi_r2_v1.2,2013-02-18 21:31:00,
2013-02-18 13:36:00,61.8,48.6,30.02,SW,216,4.0,9.0,62,0.00,,,0.00,605,HR-IXP-WINDi_r2_v1.2,2013-02-18 21:36:00,
2013-02-18 13:42:00,60.6,47.5,30.02,SW,232,3.0,9.0,62,0.00,,,0.00,598,HR-IXP-WINDi_r2_v1.2,2013-02-18 21:42:00,
2013-02-18 13:47:00,60.5,47.8,30.02,SW,221,4.0,9.0,63,0.00,,,0.00,587,HR-IXP-WINDi_r2_v1.2,2013-02-18 21:47:00,
2013-02-18 13:52:00,61.9,48.7,30.02,WSW,257,3.0,7.0,62,0.00,,,0.00,584,HR-IXP-WINDi_r2_v1.2,2013-02-18 21:52:00,
2013-02-18 13:57:00,61.9,49.1,30.02,West,279,7.0,7.0,63,0.00,,,0.00,566,HR-IXP-WINDi_r2_v1.2,2013-02-18 21:57:00,
2013-02-18 14:02:00,61.3,48.5,30.02,SW,228,3.0,8.0,63,0.00,,,0.00,561,HR-IXP-WINDi_r2_v1.2,2013-02-18 22:02:00,
2013-02-18 14:07:00,61.1,49.2,30.01,SSW,197,5.0,8.0,65,0.00,,,0.00,552,HR-IXP-WINDi_r2_v1.2,2013-02-18 22:07:00,
2013-02-18 14:13:00,60.9,48.6,30.01,South,190,5.0,9.0,64,0.00,,,0.00,540,HR-IXP-WINDi_r2_v1.2,2013-02-18 22:13:00,
2013-02-18 14:18:00,61.0,48.7,30.01,SSW,192,2.0,9.0,64,0.00,,,0.00,531,HR-IXP-WINDi_r2_v1.2,2013-02-18 22:18:00,
2013-02-18 14:23:00,61.4,48.2,30.01,SW,218,2.0,8.0,62,0.00,,,0.00,520,HR-IXP-WINDi_r2_v1.2,2013-02-18 22:23:00,
2013-02-18 14:28:00,61.2,48.9,30.01,South,171,2.0,10.0,64,0.00,,,0.00,508,HR-IXP-WINDi_r2_v1.2,2013-02-18 22:28:00,
2013-02-18 14:33:00,62.9,48.8,30.01,SW,232,5.0,10.0,60,0.00,,,0.00,497,HR-IXP-WINDi_r2_v1.2,2013-02-18 22:33:00,
2013-02-18 14:38:00,61.4,48.6,30.01,SW,226,5.0,8.0,63,0.00,,,0.00,480,HR-IXP-WINDi_r2_v1.2,2013-02-18 22:38:00,
2013-02-18 14:44:00,61.8,49.0,30.01,SSW,202,3.0,8.0,63,0.00,,,0.00,466,HR-IXP-WINDi_r2_v1.2,2013-02-18 22:44:00,
2013-02-18 14:49:00,61.2,48.5,30.01,SW,234,7.0,9.0,63,0.00,,,0.00,448,HR-IXP-WINDi_r2_v1.2,2013-02-18 22:49:00,
2013-02-18 14:54:00,60.9,48.2,30.01,SW,219,7.0,10.0,63,0.00,,,0.00,418,HR-IXP-WINDi_r2_v1.2,2013-02-18 22:54:00,
2013-02-18 14:59:00,60.6,48.3,30.01,SW,218,4.0,10.0,64,0.00,,,0.00,390,HR-IXP-WINDi_r2_v1.2,2013-02-18 22:59:00,
2013-02-18 15:04:00,60.7,48.4,30.01,SSW,209,7.0,9.0,64,0.00,,,0.00,339,HR-IXP-WINDi_r2_v1.2,2013-02-18 23:04:00,
2013-02-18 15:09:00,60.5,48.2,30.01,SW,236,3.0,8.0,64,0.00,,,0.00,213,HR-IXP-WINDi_r2_v1.2,2013-02-18 23:09:00,
2013-02-18 15:14:00,60.6,48.3,30.01,SSW,198,6.0,8.0,64,0.00,,,0.00,211,HR-IXP-WINDi_r2_v1.2,2013-02-18 23:14:00,
2013-02-18 15:20:00,60.4,48.1,30.00,SW,227,9.0,9.0,64,0.00,,,0.00,244,HR-IXP-WINDi_r2_v1.2,2013-02-18 23:20:00,
2013-02-18 15:25:00,60.6,47.9,30.00,SW,222,4.0,9.0,63,0.00,,,0.00,230,HR-IXP-WINDi_r2_v1.2,2013-02-18 23:25:00,
2013-02-18 15:30:00,60.3,48.4,30.00,SSW,207,5.0,9.0,65,0.00,,,0.00,229,HR-IXP-WINDi_r2_v1.2,2013-02-18 23:30:00,
2013-02-18 15:35:00,60.4,48.1,30.00,SSW,203,4.0,7.0,64,0.00,,,0.00,272,HR-IXP-WINDi_r2_v1.2,2013-02-18 23:35:00,
2013-02-18 15:41:00,60.5,48.6,30.00,SW,235,6.0,8.0,65,0.00,,,0.00,272,HR-IXP-WINDi_r2_v1.2,2013-02-18 23:41:00,
2013-02-18 15:46:00,60.4,48.5,30.00,WSW,242,4.0,8.0,65,0.00,,,0.00,267,HR-IXP-WINDi_r2_v1.2,2013-02-18 23:46:00,
2013-02-18 15:51:00,60.2,48.7,30.00,SW,222,4.0,8.0,66,0.00,,,0.00,262,HR-IXP-WINDi_r2_v1.2,2013-02-18 23:51:00,
2013-02-18 15:56:00,59.4,48.4,29.99,WSW,242,3.0,10.0,67,0.00,,,0.00,253,HR-IXP-WINDi_r2_v1.2,2013-02-18 23:56:00,
2013-02-18 16:01:00,59.6,48.6,29.99,SSW,205,3.0,10.0,67,0.00,,,0.00,243,HR-IXP-WINDi_r2_v1.2,2013-02-19 00:01:00,
2013-02-18 16:07:00,59.9,48.1,29.99,SSW,201,7.0,9.0,65,0.00,,,0.00,230,HR-IXP-WINDi_r2_v1.2,2013-02-19 00:07:00,
2013-02-18 16:12:00,59.9,48.5,29.99,SSW,212,3.0,9.0,66,0.00,,,0.00,169,HR-IXP-WINDi_r2_v1.2,2013-02-19 00:12:00,
2013-02-18 16:17:00,59.9,48.5,29.99,SW,217,4.0,8.0,66,0.00,,,0.00,195,HR-IXP-WINDi_r2_v1.2,2013-02-19 00:17:00,
2013-02-18 16:22:00,59.3,48.3,29.99,SSE,163,2.0,10.0,67,0.00,,,0.00,179,HR-IXP-WINDi_r2_v1.2,2013-02-19 00:22:00,
2013-02-18 16:27:00,59.1,48.5,29.99,South,181,3.0,10.0,68,0.00,,,0.00,163,HR-IXP-WINDi_r2_v1.2,2013-02-19 00:27:00,
2013-02-18 16:32:00,59.5,48.9,29.99,South,170,4.0,10.0,68,0.00,,,0.00,149,HR-IXP-WINDi_r2_v1.2,2013-02-19 00:32:00,
2013-02-18 16:38:00,59.1,48.5,29.99,SSE,166,4.0,11.0,68,0.00,,,0.00,134,HR-IXP-WINDi_r2_v1.2,2013-02-19 00:38:00,
2013-02-18 16:43:00,59.1,48.5,29.99,South,177,2.0,11.0,68,0.00,,,0.00,120,HR-IXP-WINDi_r2_v1.2,2013-02-19 00:43:00,
2013-02-18 16:48:00,58.7,48.1,29.99,SSW,209,6.0,8.0,68,0.00,,,0.00,104,HR-IXP-WINDi_r2_v1.2,2013-02-19 00:48:00,
2013-02-18 16:53:00,57.7,47.9,29.99,SSW,209,7.0,10.0,70,0.00,,,0.00,74,HR-IXP-WINDi_r2_v1.2,2013-02-19 00:53:00,
2013-02-18 16:58:00,57.6,48.6,29.99,SW,217,4.0,10.0,72,0.00,,,0.00,49,HR-IXP-WINDi_r2_v1.2,2013-02-19 00:58:00,
2013-02-18 17:03:00,57.5,48.1,29.99,SSE,149,6.0,9.0,71,0.00,,,0.00,46,HR-IXP-WINDi_r2_v1.2,2013-02-19 01:03:00,
2013-02-18 17:08:00,57.4,48.0,29.99,SSW,206,5.0,8.0,71,0.00,,,0.00,37,HR-IXP-WINDi_r2_v1.2,2013-02-19 01:08:00,
2013-02-18 17:13:00,56.9,48.3,29.99,SSW,199,5.0,8.0,73,0.00,,,0.00,35,HR-IXP-WINDi_r2_v1.2,2013-02-19 01:13:00,
2013-02-18 17:19:00,56.8,48.2,29.99,SSE,166,3.0,8.0,73,0.00,,,0.00,26,HR-IXP-WINDi_r2_v1.2,2013-02-19 01:19:00,
2013-02-18 17:24:00,56.4,48.2,29.99,SW,221,5.0,8.0,74,0.00,,,0.00,19,HR-IXP-WINDi_r2_v1.2,2013-02-19 01:24:00,
2013-02-18 17:29:00,56.3,48.4,29.99,SW,217,4.0,8.0,75,0.00,,,0.00,12,HR-IXP-WINDi_r2_v1.2,2013-02-19 01:29:00,
2013-02-18 17:34:00,56.0,48.5,29.99,SW,214,3.0,8.0,76,0.00,,,0.00,9,HR-IXP-WINDi_r2_v1.2,2013-02-19 01:34:00,
2013-02-18 17:40:00,55.8,48.6,29.99,SSW,207,2.0,8.0,77,0.00,,,0.00,5,HR-IXP-WINDi_r2_v1.2,2013-02-19 01:40:00,
2013-02-18 17:45:00,55.6,48.4,29.99,SW,221,3.0,7.0,77,0.00,,,0.00,0,HR-IXP-WINDi_r2_v1.2,2013-02-19 01:45:00,
2013-02-18 17:50:00,55.4,48.6,29.99,South,177,4.0,9.0,78,0.00,,,0.00,0,HR-IXP-WINDi_r2_v1.2,2013-02-19 01:50:00,
2013-02-18 17:55:00,55.2,48.4,29.99,SSE,161,1.0,9.0,78,0.00,,,0.00,0,HR-IXP-WINDi_r2_v1.2,2013-02-19 01:55:00,
2013-02-18 18:00:00,55.1,48.3,29.99,SW,215,4.0,7.0,78,0.00,,,0.00,0,HR-IXP-WINDi_r2_v1.2,2013-02-19 02:00:00,
2013-02-18 18:05:00,54.9,48.1,29.99,South,191,4.0,7.0,78,0.00,,,0.00,0,HR-IXP-WINDi_r2_v1.2,2013-02-19 02:05:00,
2013-02-18 18:11:00,54.8,48.0,30.00,South,180,2.0,7.0,78,0.00,,,0.00,0,HR-IXP-WINDi_r2_v1.2,2013-02-19 02:11:00,
2013-02-18 18:16:00,54.7,47.9,30.00,SSW,201,2.0,7.0,78,0.00,,,0.00,0,HR-IXP-WINDi_r2_v1.2,2013-02-19 02:16:00,
2013-02-18 18:21:00,54.7,48.3,30.00,SSW,207,4.0,7.0,79,0.00,,,0.00,0,HR-IXP-WINDi_r2_v1.2,2013-02-19 02:21:00,
2013-02-18 18:26:00,54.7,48.3,30.00,South,178,5.0,7.0,79,0.00,,,0.00,0,HR-IXP-WINDi_r2_v1.2,2013-02-19 02:26:00,
2013-02-18 18:31:00,54.8,48.4,30.00,SSW,209,2.0,8.0,79,0.00,,,0.00,0,HR-IXP-WINDi_r2_v1.2,2013-02-19 02:31:00,
2013-02-18 18:36:00,54.8,48.0,30.00,SW,225,4.0,8.0,78,0.00,,,0.00,0,HR-IXP-WINDi_r2_v1.2,2013-02-19 02:36:00,
2013-02-18 18:42:00,54.9,48.1,30.00,SSW,211,5.0,7.0,78,0.00,,,0.00,0,HR-IXP-WINDi_r2_v1.2,2013-02-19 02:42:00,
2013-02-18 18:47:00,54.9,48.1,30.01,South,180,5.0,8.0,78,0.00,,,0.00,0,HR-IXP-WINDi_r2_v1.2,2013-02-19 02:47:00,
2013-02-18 18:52:00,54.9,48.1,30.01,SSW,196,6.0,9.0,78,0.00,,,0.00,0,HR-IXP-WINDi_r2_v1.2,2013-02-19 02:52:00,
2013-02-18 18:57:00,54.9,48.1,30.01,SSW,195,5.0,9.0,78,0.00,,,0.00,0,HR-IXP-WINDi_r2_v1.2,2013-02-19 02:57:00,
2013-02-18 19:02:00,55.0,48.2,30.01,South,178,3.0,8.0,78,0.00,,,0.00,0,HR-IXP-WINDi_r2_v1.2,2013-02-19 03:02:00,
2013-02-18 19:07:00,55.1,48.3,30.01,SW,227,5.0,6.0,78,0.00,,,0.00,0,HR-IXP-WINDi_r2_v1.2,2013-02-19 03:07:00,
2013-02-18 19:12:00,55.0,48.2,30.01,South,175,4.0,7.0,78,0.00,,,0.00,0,HR-IXP-WINDi_r2_v1.2,2013-02-19 03:12:00,
2013-02-18 19:17:00,55.1,48.3,30.02,SW,215,1.0,7.0,78,0.00,,,0.00,0,HR-IXP-WINDi_r2_v1.2,2013-02-19 03:17:00,
2013-02-18 19:22:00,55.0,48.2,30.02,South,190,4.0,10.0,78,0.00,,,0.00,0,HR-IXP-WINDi_r2_v1.2,2013-02-19 03:22:00,
2013-02-18 19:28:00,54.9,48.1,30.02,SSW,201,3.0,10.0,78,0.00,,,0.00,0,HR-IXP-WINDi_r2_v1.2,2013-02-19 03:28:00,
2013-02-18 19:33:00,55.0,48.2,30.02,South,178,2.0,6.0,78,0.00,,,0.00,0,HR-IXP-WINDi_r2_v1.2,2013-02-19 03:33:00,
2013-02-18 19:38:00,55.0,48.2,30.02,SW,215,5.0,6.0,78,0.00,,,0.00,0,HR-IXP-WINDi_r2_v1.2,2013-02-19 03:38:00,
2013-02-18 19:43:00,55.0,48.2,30.02,SW,232,5.0,6.0,78,0.00,,,0.00,0,HR-IXP-WINDi_r2_v1.2,2013-02-19 03:43:00,
2013-02-18 19:48:00,54.9,48.1,30.02,South,183,3.0,7.0,78,0.00,,,0.00,0,HR-IXP-WINDi_r2_v1.2,2013-02-19 03:48:00,
2013-02-18 19:53:00,54.9,47.8,30.02,SSW,194,3.0,7.0,77,0.00,,,0.00,0,HR-IXP-WINDi_r2_v1.2,2013-02-19 03:53:00,
2013-02-18 19:58:00,54.9,48.1,30.02,SSW,209,3.0,6.0,78,0.00,,,0.00,0,HR-IXP-WINDi_r2_v1.2,2013-02-19 03:58:00,
2013-02-18 20:04:00,55.0,47.9,30.02,SSW,210,2.0,6.0,77,0.00,,,0.00,0,HR-IXP-WINDi_r2_v1.2,2013-02-19 04:04:00,
2013-02-18 20:09:00,54.9,47.8,30.02,SW,220,4.0,7.0,77,0.00,,,0.00,0,HR-IXP-WINDi_r2_v1.2,2013-02-19 04:09:00,
2013-02-18 20:14:00,54.9,47.8,30.03,SW,223,3.0,7.0,77,0.00,,,0.00,0,HR-IXP-WINDi_r2_v1.2,2013-02-19 04:14:00,
2013-02-18 20:19:00,54.9,47.8,30.03,SW,226,1.0,6.0,77,0.00,,,0.00,0,HR-IXP-WINDi_r2_v1.2,2013-02-19 04:19:00,
2013-02-18 20:24:00,54.8,47.3,30.03,SW,214,2.0,7.0,76,0.00,,,0.00,0,HR-IXP-WINDi_r2_v1.2,2013-02-19 04:24:00,
2013-02-18 20:30:00,54.8,47.3,30.03,SSW,194,3.0,7.0,76,0.00,,,0.00,0,HR-IXP-WINDi_r2_v1.2,2013-02-19 04:30:00,
2013-02-18 20:35:00,54.8,47.3,30.03,SW,222,3.0,7.0,76,0.00,,,0.00,0,HR-IXP-WINDi_r2_v1.2,2013-02-19 04:35:00,
2013-02-18 20:40:00,54.8,47.0,30.03,SSW,211,5.0,7.0,75,0.00,,,0.00,0,HR-IXP-WINDi_r2_v1.2,2013-02-19 04:40:00,
2013-02-18 20:45:00,54.8,47.0,30.03,SSW,207,2.0,7.0,75,0.00,,,0.00,0,HR-IXP-WINDi_r2_v1.2,2013-02-19 04:45:00,
2013-02-18 20:51:00,54.8,46.6,30.03,South,186,2.0,7.0,74,0.00,,,0.00,0,HR-IXP-WINDi_r2_v1.2,2013-02-19 04:51:00,
2013-02-18 20:56:00,54.9,46.4,30.03,SSW,195,3.0,7.0,73,0.00,,,0.00,0,HR-IXP-WINDi_r2_v1.2,2013-02-19 04:56:00,
2013-02-18 21:00:00,54.9,46.4,30.03,SW,225,4.0,6.0,73,0.00,,,0.00,0,HR-IXP-WINDi_r2_v1.2,2013-02-19 05:00:00,
2013-02-18 21:05:00,54.8,46.3,30.03,SSW,199,2.0,7.0,73,0.00,,,0.00,0,HR-IXP-WINDi_r2_v1.2,2013-02-19 05:05:00,
2013-02-18 21:10:00,54.9,46.4,30.03,SSE,159,1.0,7.0,73,0.00,,,0.00,0,HR-IXP-WINDi_r2_v1.2,2013-02-19 05:10:00,
2013-02-18 21:16:00,54.8,46.3,30.03,SW,214,4.0,6.0,73,0.00,,,0.00,0,HR-IXP-WINDi_r2_v1.2,2013-02-19 05:16:00,
2013-02-18 21:21:00,54.8,46.6,30.03,South,182,0.0,6.0,74,0.00,,,0.00,0,HR-IXP-WINDi_r2_v1.2,2013-02-19 05:21:00,
2013-02-18 21:26:00,54.8,46.6,30.03,South,169,1.0,5.0,74,0.00,,,0.00,0,HR-IXP-WINDi_r2_v1.2,2013-02-19 05:26:00,
2013-02-18 21:31:00,54.8,46.6,30.03,South,169,2.0,4.0,74,0.00,,,0.00,0,HR-IXP-WINDi_r2_v1.2,2013-02-19 05:31:00,
2013-02-18 21:36:00,54.8,46.6,30.03,South,169,1.0,4.0,74,0.00,,,0.00,0,HR-IXP-WINDi_r2_v1.2,2013-02-19 05:36:00,
2013-02-18 21:42:00,54.7,46.9,30.03,South,169,2.0,4.0,75,0.00,,,0.00,0,HR-IXP-WINDi_r2_v1.2,2013-02-19 05:42:00,
2013-02-18 21:47:00,54.7,46.5,30.03,SSE,168,1.0,3.0,74,0.00,,,0.00,0,HR-IXP-WINDi_r2_v1.2,2013-02-19 05:47:00,
2013-02-18 21:52:00,54.7,46.5,30.03,SSE,168,1.0,3.0,74,0.00,,,0.00,0,HR-IXP-WINDi_r2_v1.2,2013-02-19 05:52:00,
2013-02-18 21:57:00,54.7,46.5,30.03,SSE,167,0.0,3.0,74,0.00,,,0.00,0,HR-IXP-WINDi_r2_v1.2,2013-02-19 05:57:00,
2013-02-18 22:02:00,54.7,46.5,30.03,SSE,166,1.0,3.0,74,0.00,,,0.00,0,HR-IXP-WINDi_r2_v1.2,2013-02-19 06:02:00,
2013-02-18 22:08:00,54.6,46.1,30.03,SSE,162,2.0,4.0,73,0.00,,,0.00,0,HR-IXP-WINDi_r2_v1.2,2013-02-19 06:08:00,
2013-02-18 22:13:00,54.6,45.7,30.03,SSE,159,1.0,4.0,72,0.00,,,0.00,0,HR-IXP-WINDi_r2_v1.2,2013-02-19 06:13:00,
2013-02-18 22:18:00,54.5,45.6,30.03,SSE,156,0.0,4.0,72,0.00,,,0.00,0,HR-IXP-WINDi_r2_v1.2,2013-02-19 06:18:00,
2013-02-18 22:23:00,54.5,45.6,30.03,SSE,157,2.0,3.0,72,0.00,,,0.00,0,HR-IXP-WINDi_r2_v1.2,2013-02-19 06:23:00,
2013-02-18 22:29:00,54.5,45.6,30.03,SSE,154,0.0,5.0,72,0.00,,,0.00,0,HR-IXP-WINDi_r2_v1.2,2013-02-19 06:29:00,
2013-02-18 22:34:00,54.4,45.1,30.03,SE,138,1.0,5.0,71,0.00,,,0.00,0,HR-IXP-WINDi_r2_v1.2,2013-02-19 06:34:00,
2013-02-18 22:39:00,54.4,45.1,30.02,SSE,152,2.0,5.0,71,0.00,,,0.00,0,HR-IXP-WINDi_r2_v1.2,2013-02-19 06:39:00,
2013-02-18 22:44:00,54.4,45.1,30.02,SSE,153,2.0,4.0,71,0.00,,,0.00,0,HR-IXP-WINDi_r2_v1.2,2013-02-19 06:44:00,
2013-02-18 22:50:00,54.4,44.8,30.02,SE,146,4.0,5.0,70,0.00,,,0.00,0,HR-IXP-WINDi_r2_v1.2,2013-02-19 06:50:00,
2013-02-18 22:55:00,54.4,44.8,30.02,SE,141,4.0,5.0,70,0.00,,,0.00,0,HR-IXP-WINDi_r2_v1.2,2013-02-19 06:55:00,
2013-02-18 23:00:00,54.4,44.8,30.01,SE,130,2.0,5.0,70,0.00,,,0.00,0,HR-IXP-WINDi_r2_v1.2,2013-02-19 07:00:00,
2013-02-18 23:05:00,54.4,44.4,30.01,SE,136,1.0,5.0,69,0.00,,,0.00,0,HR-IXP-WINDi_r2_v1.2,2013-02-19 07:05:00,
2013-02-18 23:10:00,54.4,44.4,30.01,SE,132,1.0,5.0,69,0.00,,,0.00,0,HR-IXP-WINDi_r2_v1.2,2013-02-19 07:10:00,
2013-02-18 23:15:00,54.4,44.8,30.02,SE,146,2.0,4.0,70,0.00,,,0.00,0,HR-IXP-WINDi_r2_v1.2,2013-02-19 07:15:00,
2013-02-18 23:21:00,54.4,44.8,30.01,SSE,153,2.0,4.0,70,0.00,,,0.00,0,HR-IXP-WINDi_r2_v1.2,2013-02-19 07:21:00,
2013-02-18 23:26:00,54.4,44.8,30.02,SE,144,2.0,6.0,70,0.00,,,0.00,0,HR-IXP-WINDi_r2_v1.2,2013-02-19 07:26:00,
2013-02-18 23:31:00,54.4,44.8,30.01,SE,137,6.0,7.0,70,0.00,,,0.00,0,HR-IXP-WINDi_r2_v1.2,2013-02-19 07:31:00,
2013-02-18 23:36:00,54.4,44.4,30.01,SSE,165,2.0,7.0,69,0.00,,,0.00,0,HR-IXP-WINDi_r2_v1.2,2013-02-19 07:36:00,
2013-02-18 23:41:00,54.4,44.4,30.01,SSE,165,3.0,7.0,69,0.00,,,0.00,0,HR-IXP-WINDi_r2_v1.2,2013-02-19 07:41:00,
2013-02-18 23:47:00,54.3,44.7,30.01,South,176,2.0,7.0,70,0.00,,,0.00,0,HR-IXP-WINDi_r2_v1.2,2013-02-19 07:47:00,
2013-02-18 23:52:00,54.2,44.6,30.01,SSE,148,3.0,7.0,70,0.00,,,0.00,0,HR-IXP-WINDi_r2_v1.2,2013-02-19 07:52:00,
2013-02-18 23:57:00,54.2,44.6,30.02,SSE,152,5.0,7.0,70,0.00,,,0.00,0,HR-IXP-WINDi_r2_v1.2,2013-02-19 07:57:00,